Glenn, Georgia
Current Conditions -  °F | °C
As of 2:15 AM on Saturday 20 Dec 2014 (Local Time) from KLGC Reporting Station
Light Rain Light Rain  
Wind Chill: 46°   Ceiling: 6500
Heat Index: 46°   Visibility: 7mi
Dew Point: 44°   Wind: 0mph
Humidity: 95%   Direction: NA
Pressure: 30.14"   Gusts: NA
Location:  33.15°N, 85.2°W
Report Text: KLGC 200715Z AUTO 00000KT 7SM -RA BKN065 OVC085 08/07 A3014 RMK AO2 T00750067
Loading
Personal Weather Stations






























Interactive Weather Map New forecast layout! Learn more

10-Day Weather Forecast

Advertisements
Track Severe Weather on mobile